Time;durP1;ratioP1;P1;durP2;ratioP2;P2;SDS_P1;SDS_P2;PMS_P1;PMS_P2;Temp;Humidity;BMP_temperature;BMP_pressure;BME280_temperature;BME280_humidity;BME280_pressure;Samples;Min_cycle;Max_cycle;Signal;HPM_P1;HPM_P2
2023/04/27 00:02:02;;;;;;;5.50;3.40;;;4.40;99.90;;;;;;5030937;28;20213;-76
2023/04/27 00:04:27;;;;;;;8.10;3.97;;;4.40;99.90;;;;;;5032310;28;20168;-76
2023/04/27 00:06:53;;;;;;;6.17;3.43;;;4.30;99.90;;;;;;5032030;28;20192;-76
2023/04/27 00:09:19;;;;;;;5.47;3.63;;;4.30;99.90;;;;;;5032089;28;20173;-76
2023/04/27 00:11:44;;;;;;;6.90;3.40;;;4.20;99.90;;;;;;5030614;28;20196;-76
2023/04/27 00:14:10;;;;;;;5.27;3.30;;;4.20;99.90;;;;;;5032065;28;20180;-76
2023/04/27 00:16:35;;;;;;;6.73;3.83;;;4.10;99.90;;;;;;5032066;28;20212;-76
2023/04/27 00:19:01;;;;;;;7.33;3.70;;;4.10;99.90;;;;;;5032210;28;20188;-76
2023/04/27 00:21:27;;;;;;;6.77;3.70;;;4.10;99.90;;;;;;5031844;28;20168;-76
2023/04/27 00:23:53;;;;;;;5.43;3.23;;;4.00;99.90;;;;;;5031907;28;20169;-76
2023/04/27 00:26:21;;;;;;;4.47;3.50;;;4.00;99.90;;;;;;5030519;28;20196;-76
2023/04/27 00:28:47;;;;;;;6.77;3.77;;;3.90;99.90;;;;;;5031851;28;20172;-77
2023/04/27 00:31:12;;;;;;;6.93;3.77;;;3.90;99.90;;;;;;5030476;28;20263;-76
2023/04/27 00:33:38;;;;;;;4.67;3.47;;;3.80;99.90;;;;;;5030425;28;20175;-76
2023/04/27 00:36:03;;;;;;;5.47;3.63;;;3.80;99.90;;;;;;5030369;28;20240;-76
2023/04/27 00:38:29;;;;;;;5.87;3.70;;;3.80;99.90;;;;;;5030258;28;20252;-77
2023/04/27 00:41:05;;;;;;;5.17;3.50;;;3.70;99.90;;;;;;5031218;28;20571;-76
2023/04/27 00:43:31;;;;;;;9.53;3.63;;;3.70;99.90;;;;;;5031996;28;20204;-76
2023/04/27 00:45:58;;;;;;;6.17;3.50;;;3.60;99.90;;;;;;5030101;28;20200;-76
2023/04/27 00:48:25;;;;;;;12.20;4.20;;;3.60;99.90;;;;;;5031472;28;20286;-76
2023/04/27 00:50:51;;;;;;;5.47;4.03;;;3.70;99.90;;;;;;5031345;28;20639;-76
2023/04/27 00:53:17;;;;;;;4.60;3.47;;;3.50;99.90;;;;;;5031435;28;20554;-76
2023/04/27 00:55:43;;;;;;;6.80;3.63;;;3.50;99.90;;;;;;5030240;28;20204;-76
2023/04/27 00:58:08;;;;;;;7.33;4.23;;;3.50;99.90;;;;;;5031192;28;20204;-77
2023/04/27 01:00:38;;;;;;;7.90;2.93;;;3.40;99.90;;;;;;5031310;28;20559;-76
2023/04/27 01:03:04;;;;;;;4.80;3.77;;;3.40;99.90;;;;;;5031265;28;20172;-76
2023/04/27 01:05:30;;;;;;;6.53;4.23;;;3.30;99.90;;;;;;5031635;28;20188;-76
2023/04/27 01:07:55;;;;;;;10.40;3.83;;;3.30;99.90;;;;;;5031263;28;20176;-76
2023/04/27 01:10:21;;;;;;;6.77;3.83;;;3.30;99.90;;;;;;5031109;28;20183;-76
2023/04/27 01:12:47;;;;;;;6.67;4.20;;;3.30;99.90;;;;;;5029682;28;20196;-76
2023/04/27 01:15:12;;;;;;;4.77;3.87;;;3.20;99.90;;;;;;5030971;28;20238;-76
2023/04/27 01:17:38;;;;;;;6.70;3.70;;;3.20;99.90;;;;;;5030905;28;20207;-76
2023/04/27 01:20:06;;;;;;;6.00;3.43;;;3.20;99.90;;;;;;5031184;28;20178;-76
2023/04/27 01:22:32;;;;;;;7.07;4.17;;;3.20;99.90;;;;;;5029631;28;20176;-76
2023/04/27 01:24:57;;;;;;;6.37;4.23;;;3.20;99.90;;;;;;5031288;28;20256;-76
2023/04/27 01:27:24;;;;;;;7.53;3.90;;;3.10;99.90;;;;;;5030881;28;20176;-76
2023/04/27 01:29:50;;;;;;;6.77;4.13;;;3.10;99.90;;;;;;5029524;28;20232;-75
2023/04/27 01:32:16;;;;;;;8.90;4.70;;;3.10;99.90;;;;;;5029462;28;20263;-75
2023/04/27 01:34:41;;;;;;;5.83;3.90;;;3.00;99.90;;;;;;5029452;28;20570;-76
2023/04/27 01:37:07;;;;;;;5.77;3.90;;;3.00;99.90;;;;;;5030773;28;20204;-77
2023/04/27 01:39:32;;;;;;;6.13;3.93;;;3.00;99.90;;;;;;5031244;28;20176;-76
2023/04/27 01:41:58;;;;;;;9.33;4.40;;;2.90;99.90;;;;;;5030632;28;20640;-76
2023/04/27 01:44:23;;;;;;;6.43;3.77;;;2.90;99.90;;;;;;5030625;28;20172;-76
2023/04/27 01:46:49;;;;;;;6.90;4.27;;;2.90;99.90;;;;;;5029242;28;20272;-76
2023/04/27 01:49:15;;;;;;;6.53;3.87;;;2.90;99.90;;;;;;5029234;28;20180;-76
2023/04/27 01:51:40;;;;;;;7.33;3.97;;;2.90;99.90;;;;;;5029689;28;20639;-76
2023/04/27 01:54:06;;;;;;;6.27;3.77;;;2.80;99.90;;;;;;5029151;28;20177;-76
2023/04/27 01:56:32;;;;;;;7.80;4.13;;;2.80;99.90;;;;;;5030221;28;20211;-76
2023/04/27 01:58:57;;;;;;;6.10;4.27;;;2.80;99.90;;;;;;5029089;28;20172;-76
2023/04/27 02:01:23;;;;;;;6.73;4.77;;;2.70;99.90;;;;;;5030497;28;20173;-76
2023/04/27 02:03:48;;;;;;;4.90;4.00;;;2.70;99.90;;;;;;5028975;28;20176;-76
2023/04/27 02:06:14;;;;;;;9.63;4.27;;;2.70;99.90;;;;;;5030699;28;20196;-76
2023/04/27 02:08:40;;;;;;;5.30;4.03;;;2.60;99.90;;;;;;5028950;28;20168;-76
2023/04/27 02:11:05;;;;;;;7.23;4.20;;;2.60;99.90;;;;;;5028904;28;20195;-76
2023/04/27 02:13:31;;;;;;;10.00;4.27;;;2.60;99.90;;;;;;5030088;28;20267;-76
2023/04/27 02:15:57;;;;;;;9.30;4.80;;;2.50;99.90;;;;;;5030006;28;20196;-76
2023/04/27 02:18:23;;;;;;;6.03;4.60;;;2.50;99.90;;;;;;5028792;28;20196;-76
2023/04/27 02:20:48;;;;;;;8.30;3.73;;;2.60;99.90;;;;;;5030051;28;20703;-76
2023/04/27 02:23:14;;;;;;;7.17;4.00;;;2.50;99.90;;;;;;5030065;28;20247;-76
2023/04/27 02:25:43;;;;;;;5.50;3.90;;;2.50;99.90;;;;;;5029873;28;20225;-76
2023/04/27 02:28:09;;;;;;;7.93;4.20;;;2.50;99.90;;;;;;5028658;28;20172;-76
2023/04/27 02:30:36;;;;;;;5.57;4.07;;;2.40;99.90;;;;;;5028587;28;20176;-76
2023/04/27 02:33:01;;;;;;;6.57;3.93;;;2.40;99.90;;;;;;5029884;28;20172;-76
2023/04/27 02:35:27;;;;;;;7.23;4.33;;;2.40;99.90;;;;;;5029823;28;20616;-76
2023/04/27 02:37:52;;;;;;;10.13;3.97;;;2.40;99.90;;;;;;5029955;28;20644;-75
2023/04/27 02:40:18;;;;;;;7.90;4.43;;;2.40;99.90;;;;;;5029803;28;20168;-76
2023/04/27 02:42:43;;;;;;;6.90;4.50;;;2.30;99.90;;;;;;5030048;28;20172;-76
2023/04/27 02:45:09;;;;;;;8.03;4.03;;;2.30;99.90;;;;;;5029674;28;20735;-76
2023/04/27 02:47:35;;;;;;;5.23;3.80;;;2.20;99.90;;;;;;5029749;28;20176;-76
2023/04/27 02:50:01;;;;;;;6.77;4.13;;;2.20;99.90;;;;;;5028333;28;20233;-76
2023/04/27 02:52:26;;;;;;;6.47;4.07;;;2.20;99.90;;;;;;5029645;28;20678;-76
2023/04/27 02:54:52;;;;;;;8.10;4.53;;;2.20;99.90;;;;;;5029491;28;20203;-75
2023/04/27 02:57:17;;;;;;;5.30;4.00;;;2.20;99.90;;;;;;5028227;28;20223;-76
2023/04/27 02:59:43;;;;;;;6.17;4.37;;;2.20;99.90;;;;;;5029588;28;20542;-75
2023/04/27 03:02:09;;;;;;;5.77;4.10;;;2.20;99.90;;;;;;5029698;28;20560;-76
2023/04/27 03:04:35;;;;;;;6.63;3.93;;;2.20;99.90;;;;;;5029690;28;20164;-76
2023/04/27 03:07:02;;;;;;;7.93;5.23;;;2.20;99.90;;;;;;5029266;28;20195;-76
2023/04/27 03:09:27;;;;;;;7.93;4.80;;;2.20;99.90;;;;;;5029346;28;20176;-76
2023/04/27 03:11:53;;;;;;;10.10;5.07;;;2.20;99.90;;;;;;5027971;28;20241;-75
2023/04/27 03:14:18;;;;;;;8.23;4.20;;;2.20;99.90;;;;;;5029373;28;20512;-75
2023/04/27 03:16:44;;;;;;;10.27;4.87;;;2.10;99.90;;;;;;5027851;28;20519;-76
2023/04/27 03:19:10;;;;;;;8.03;4.47;;;2.10;99.90;;;;;;5029228;28;20538;-76
2023/04/27 03:21:35;;;;;;;10.67;4.70;;;2.10;99.90;;;;;;5027910;28;20173;-76
2023/04/27 03:24:01;;;;;;;11.70;5.07;;;2.10;99.90;;;;;;5029299;28;20175;-76
2023/04/27 03:26:27;;;;;;;11.93;4.93;;;2.10;99.90;;;;;;5027793;28;20196;-76
2023/04/27 03:28:52;;;;;;;8.60;4.93;;;2.10;99.90;;;;;;5029107;28;20176;-76
2023/04/27 03:31:18;;;;;;;8.80;5.40;;;2.10;99.90;;;;;;5028018;28;20567;-75
2023/04/27 03:33:43;;;;;;;7.60;5.30;;;2.00;99.90;;;;;;5029171;28;20570;-76
2023/04/27 03:36:10;;;;;;;5.70;4.53;;;2.10;99.90;;;;;;5029053;28;20192;-76
2023/04/27 03:38:36;;;;;;;7.57;5.23;;;2.00;99.90;;;;;;5029038;28;20213;-76
2023/04/27 03:41:01;;;;;;;8.63;5.07;;;2.10;99.90;;;;;;5029012;28;20176;-76
2023/04/27 03:43:27;;;;;;;8.30;4.73;;;2.00;99.90;;;;;;5027624;28;20696;-76
2023/04/27 03:45:53;;;;;;;10.40;5.63;;;2.00;99.90;;;;;;5028883;28;20366;-75
2023/04/27 03:48:19;;;;;;;6.77;4.90;;;2.00;99.90;;;;;;5027617;28;20264;-75
2023/04/27 03:50:45;;;;;;;9.00;4.67;;;2.00;99.90;;;;;;5027558;28;20183;-75
2023/04/27 03:53:12;;;;;;;7.90;5.40;;;2.00;99.90;;;;;;5027524;28;20271;-75
2023/04/27 03:55:38;;;;;;;10.00;5.50;;;2.00;99.90;;;;;;5028980;28;20196;-75
2023/04/27 03:58:04;;;;;;;8.33;6.07;;;2.00;99.90;;;;;;5028831;28;20295;-75
2023/04/27 04:00:30;;;;;;;7.97;4.87;;;2.00;99.90;;;;;;5028723;28;20550;-76
2023/04/27 04:02:55;;;;;;;8.83;5.37;;;1.90;99.90;;;;;;5028815;28;20252;-76
2023/04/27 04:05:21;;;;;;;8.90;5.80;;;1.90;99.90;;;;;;5027356;28;20630;-75
2023/04/27 04:07:47;;;;;;;11.40;5.47;;;1.90;99.90;;;;;;5028659;28;20181;-76
2023/04/27 04:10:12;;;;;;;9.13;5.93;;;2.00;99.90;;;;;;5028713;28;20586;-76
2023/04/27 04:12:38;;;;;;;10.77;5.90;;;1.90;99.90;;;;;;5027268;28;20200;-76
2023/04/27 04:15:04;;;;;;;7.90;5.83;;;1.90;99.90;;;;;;5029586;28;20225;-75
2023/04/27 04:17:29;;;;;;;7.93;5.23;;;1.90;99.90;;;;;;5030569;28;20204;-75
2023/04/27 04:19:55;;;;;;;8.23;4.73;;;1.90;99.90;;;;;;5031932;28;20172;-76
2023/04/27 04:22:21;;;;;;;8.67;5.87;;;1.90;99.90;;;;;;5030605;28;20267;-76
2023/04/27 04:24:46;;;;;;;9.87;6.27;;;1.90;99.90;;;;;;5030543;28;20275;-76
2023/04/27 04:27:12;;;;;;;9.47;5.87;;;2.00;99.90;;;;;;5032036;28;20192;-76
2023/04/27 04:29:38;;;;;;;11.00;5.53;;;2.00;99.90;;;;;;5030544;28;20184;-76
2023/04/27 04:32:03;;;;;;;7.70;5.77;;;2.00;99.90;;;;;;5030398;28;20186;-75
2023/04/27 04:34:29;;;;;;;9.07;5.83;;;1.90;99.90;;;;;;5030383;28;20313;-76
2023/04/27 04:36:56;;;;;;;9.93;5.23;;;1.90;99.90;;;;;;5031571;28;20200;-77
2023/04/27 04:39:22;;;;;;;8.77;6.10;;;1.90;99.90;;;;;;5031627;28;20188;-76
2023/04/27 04:41:48;;;;;;;10.90;6.47;;;1.90;99.90;;;;;;5031588;28;20173;-76
2023/04/27 04:44:18;;;;;;;7.87;5.70;;;1.90;99.90;;;;;;5030107;28;20172;-76
2023/04/27 04:46:43;;;;;;;10.67;5.17;;;1.90;99.90;;;;;;5031448;28;20664;-76
2023/04/27 04:49:09;;;;;;;8.60;5.50;;;1.90;99.90;;;;;;5030167;28;20176;-76
2023/04/27 04:51:35;;;;;;;8.17;5.07;;;1.90;99.90;;;;;;5031432;28;20176;-76
2023/04/27 04:54:00;;;;;;;9.47;5.47;;;1.90;99.90;;;;;;5031360;28;20255;-75
2023/04/27 04:56:26;;;;;;;9.07;5.77;;;2.00;99.90;;;;;;5031118;28;20253;-75
2023/04/27 04:58:51;;;;;;;9.97;5.27;;;2.00;99.90;;;;;;5031382;28;20171;-75
2023/04/27 05:01:17;;;;;;;10.70;5.97;;;2.00;99.90;;;;;;5029929;28;20225;-75
2023/04/27 05:03:42;;;;;;;8.13;5.83;;;2.00;99.90;;;;;;5029988;28;20249;-75
2023/04/27 05:06:08;;;;;;;10.60;5.70;;;2.10;99.90;;;;;;5031526;28;20667;-75
2023/04/27 05:08:34;;;;;;;7.60;5.63;;;2.10;99.90;;;;;;5031331;28;20172;-75
2023/04/27 05:11:00;;;;;;;7.50;5.63;;;2.10;99.90;;;;;;5031305;28;20232;-75
2023/04/27 05:13:26;;;;;;;10.00;6.50;;;2.20;99.90;;;;;;5030992;28;20682;-75
2023/04/27 05:15:52;;;;;;;8.73;5.77;;;2.20;99.90;;;;;;5030987;28;20531;-75
2023/04/27 05:18:18;;;;;;;10.90;5.80;;;2.20;99.90;;;;;;5030982;28;20193;-75
2023/04/27 05:20:43;;;;;;;12.47;5.73;;;2.20;99.90;;;;;;5029753;28;20208;-75
2023/04/27 05:23:09;;;;;;;8.00;5.67;;;2.20;99.90;;;;;;5031000;28;20233;-75
2023/04/27 05:25:40;;;;;;;8.10;5.23;;;2.30;99.90;;;;;;5030919;28;20597;-72
2023/04/27 05:28:09;;;;;;;7.70;5.77;;;2.30;99.90;;;;;;5029002;28;20214;-72
2023/04/27 05:30:35;;;;;;;12.10;6.20;;;2.40;99.90;;;;;;5029735;28;20262;-72
2023/04/27 05:33:02;;;;;;;11.00;5.97;;;2.50;99.90;;;;;;5029840;28;20176;-72
2023/04/27 05:35:29;;;;;;;11.83;6.07;;;2.50;99.90;;;;;;5031373;28;20195;-72
2023/04/27 05:37:54;;;;;;;14.53;6.27;;;2.60;99.90;;;;;;5031766;28;20241;-73
2023/04/27 05:40:20;;;;;;;11.73;6.27;;;2.60;99.90;;;;;;5031049;28;20172;-71
2023/04/27 05:42:46;;;;;;;9.97;6.80;;;2.70;99.90;;;;;;5031135;28;20168;-72
2023/04/27 05:45:12;;;;;;;13.33;7.27;;;2.70;99.90;;;;;;5029696;28;20616;-72
2023/04/27 05:47:37;;;;;;;12.13;6.40;;;2.80;99.90;;;;;;5031042;28;20180;-72
2023/04/27 05:50:03;;;;;;;14.87;7.47;;;2.90;99.90;;;;;;5031066;28;20193;-72
2023/04/27 05:52:29;;;;;;;13.90;6.97;;;3.00;99.90;;;;;;5029839;28;20270;-71
2023/04/27 05:54:57;;;;;;;15.23;8.33;;;3.20;99.90;;;;;;5030614;28;20643;-71
2023/04/27 05:57:23;;;;;;;15.93;8.13;;;3.20;99.90;;;;;;5030054;28;20211;-71
2023/04/27 05:59:49;;;;;;;13.00;6.77;;;3.40;99.90;;;;;;5030842;28;20172;-72
2023/04/27 06:02:15;;;;;;;12.50;7.33;;;3.50;99.90;;;;;;5031092;28;20171;-72
2023/04/27 06:04:41;;;;;;;13.87;7.50;;;3.60;99.90;;;;;;5031744;28;20640;-72
2023/04/27 06:07:10;;;;;;;11.53;7.03;;;3.70;99.90;;;;;;5031177;28;20226;-71
2023/04/27 06:09:36;;;;;;;14.67;7.03;;;3.80;99.90;;;;;;5031812;28;20180;-71
2023/04/27 06:12:03;;;;;;;16.53;7.63;;;3.90;99.90;;;;;;5031522;28;20184;-71
2023/04/27 06:14:32;;;;;;;15.30;7.23;;;4.10;99.90;;;;;;5032228;28;20177;-72
2023/04/27 06:16:58;;;;;;;14.10;6.70;;;4.10;99.90;;;;;;5030340;28;20663;-71
2023/04/27 06:19:25;;;;;;;15.73;7.70;;;4.20;99.90;;;;;;5030340;28;20172;-71
2023/04/27 06:21:53;;;;;;;12.83;6.67;;;4.40;99.90;;;;;;5031701;28;20304;-71
2023/04/27 06:24:19;;;;;;;9.77;6.27;;;4.50;99.90;;;;;;5030126;28;20192;-71
2023/04/27 06:26:45;;;;;;;12.60;5.73;;;4.60;99.90;;;;;;5029508;28;20603;-72
2023/04/27 06:29:10;;;;;;;13.20;5.37;;;4.80;99.90;;;;;;5030829;28;20671;-72
2023/04/27 06:31:36;;;;;;;10.87;5.50;;;4.90;99.90;;;;;;5032079;28;20177;-72
2023/04/27 06:34:02;;;;;;;10.97;5.20;;;5.00;99.90;;;;;;5031919;28;20192;-72
2023/04/27 06:36:28;;;;;;;10.97;5.63;;;5.20;99.90;;;;;;5030895;28;20184;-72
2023/04/27 06:38:55;;;;;;;10.50;4.97;;;5.30;99.90;;;;;;5031470;28;20168;-72
2023/04/27 06:41:21;;;;;;;8.33;4.60;;;5.40;99.90;;;;;;5031446;28;20217;-71
2023/04/27 06:43:46;;;;;;;8.50;5.23;;;5.50;99.90;;;;;;5030380;28;20715;-72
2023/04/27 06:46:12;;;;;;;9.10;4.83;;;5.60;99.90;;;;;;5031266;28;20298;-71
2023/04/27 06:48:38;;;;;;;8.07;5.23;;;5.60;99.90;;;;;;5030973;28;20177;-72
2023/04/27 06:51:03;;;;;;;6.00;4.10;;;5.70;99.90;;;;;;5030769;28;20180;-72
2023/04/27 06:53:30;;;;;;;6.73;3.90;;;5.90;99.90;;;;;;5030679;28;20229;-72
2023/04/27 06:55:56;;;;;;;10.03;4.20;;;6.00;99.90;;;;;;5031214;28;20192;-72
2023/04/27 06:58:21;;;;;;;5.73;4.13;;;6.10;99.90;;;;;;5029845;28;20200;-72
2023/04/27 07:00:47;;;;;;;7.70;4.17;;;6.20;99.90;;;;;;5030652;28;20663;-72
2023/04/27 07:03:13;;;;;;;8.47;3.80;;;6.30;99.90;;;;;;5029684;28;20703;-72
2023/04/27 07:05:38;;;;;;;7.10;3.97;;;6.40;99.90;;;;;;5030454;28;20203;-72
2023/04/27 07:08:04;;;;;;;9.13;3.97;;;6.50;99.90;;;;;;5030236;28;20651;-72
2023/04/27 07:10:30;;;;;;;6.63;3.80;;;6.60;99.90;;;;;;5030497;28;20612;-72
2023/04/27 07:12:56;;;;;;;8.60;3.87;;;6.70;99.90;;;;;;5029624;28;20193;-72
2023/04/27 07:15:21;;;;;;;8.30;4.17;;;6.80;99.90;;;;;;5029933;28;20211;-72
2023/04/27 07:17:47;;;;;;;9.60;4.00;;;6.90;99.90;;;;;;5028726;28;20200;-73
2023/04/27 07:20:13;;;;;;;5.03;3.30;;;7.00;99.90;;;;;;5028775;28;20176;-72
2023/04/27 07:22:39;;;;;;;4.53;3.63;;;7.00;99.90;;;;;;5028743;28;20208;-72
2023/04/27 07:25:05;;;;;;;8.30;3.60;;;7.10;99.90;;;;;;5029719;28;20165;-73
2023/04/27 07:27:31;;;;;;;6.83;3.63;;;7.20;99.90;;;;;;5029581;28;20179;-72
2023/04/27 07:29:57;;;;;;;5.17;3.17;;;7.30;99.90;;;;;;5030441;28;20172;-72
2023/04/27 07:32:23;;;;;;;5.47;3.47;;;7.30;99.90;;;;;;5031015;28;20229;-72
2023/04/27 07:34:49;;;;;;;5.43;3.90;;;7.40;99.90;;;;;;5030933;28;20187;-73
2023/04/27 07:37:15;;;;;;;8.43;3.77;;;7.50;99.90;;;;;;5029330;28;20298;-72
2023/04/27 07:39:41;;;;;;;4.10;3.20;;;7.50;99.90;;;;;;5030834;28;20627;-71
2023/04/27 07:42:07;;;;;;;9.60;3.40;;;7.70;99.90;;;;;;5030910;28;20184;-73
2023/04/27 07:44:33;;;;;;;4.97;3.43;;;7.70;99.90;;;;;;5031101;28;20165;-73
2023/04/27 07:46:58;;;;;;;8.13;3.17;;;7.80;99.90;;;;;;5030763;28;20199;-72
2023/04/27 07:49:25;;;;;;;6.63;3.53;;;7.80;99.90;;;;;;5029573;28;20195;-72
2023/04/27 07:51:51;;;;;;;6.70;3.50;;;7.90;99.90;;;;;;5034378;28;20172;-73
2023/04/27 07:54:16;;;;;;;7.30;3.40;;;8.00;99.90;;;;;;5032858;28;20574;-72
2023/04/27 07:56:42;;;;;;;4.70;3.17;;;8.00;99.90;;;;;;5033121;28;20200;-72
2023/04/27 07:59:08;;;;;;;4.83;2.80;;;8.10;99.90;;;;;;5033936;28;20678;-73
2023/04/27 08:01:33;;;;;;;7.80;3.47;;;8.20;99.90;;;;;;5034032;28;20169;-72
2023/04/27 08:03:59;;;;;;;9.50;3.57;;;8.30;99.90;;;;;;5032729;28;20176;-72
2023/04/27 08:06:27;;;;;;;7.07;3.03;;;8.30;99.90;;;;;;5033611;28;20193;-71
2023/04/27 08:08:54;;;;;;;4.20;2.27;;;8.40;99.90;;;;;;5032441;28;20272;-72
2023/04/27 08:11:21;;;;;;;5.60;2.70;;;8.50;99.90;;;;;;5033678;28;20255;-72
2023/04/27 08:13:47;;;;;;;9.07;3.13;;;8.50;99.90;;;;;;5033462;28;20258;-73
2023/04/27 08:16:12;;;;;;;6.13;2.63;;;8.60;99.90;;;;;;5033585;28;20241;-73
2023/04/27 08:18:38;;;;;;;6.13;2.40;;;8.70;99.90;;;;;;5033822;28;20196;-72
2023/04/27 08:21:03;;;;;;;4.77;2.57;;;8.70;99.90;;;;;;5033620;28;20207;-72
2023/04/27 08:23:31;;;;;;;4.60;2.80;;;8.80;99.90;;;;;;5034079;28;20206;-72
2023/04/27 08:25:57;;;;;;;6.37;2.93;;;8.80;99.90;;;;;;5033175;28;20188;-71
2023/04/27 08:28:23;;;;;;;4.33;2.57;;;8.90;99.90;;;;;;5033453;28;20666;-72
2023/04/27 08:30:48;;;;;;;5.30;2.50;;;8.90;99.90;;;;;;5031873;28;20211;-72
2023/04/27 08:33:14;;;;;;;4.00;2.37;;;9.00;99.90;;;;;;5033397;28;20222;-72
2023/04/27 08:35:39;;;;;;;6.60;2.93;;;9.10;99.90;;;;;;5033177;28;20211;-72
2023/04/27 08:38:05;;;;;;;7.13;2.87;;;9.20;99.90;;;;;;5033224;28;20192;-73
2023/04/27 08:40:30;;;;;;;5.73;2.40;;;9.20;99.90;;;;;;5033185;28;20596;-72
2023/04/27 08:42:57;;;;;;;4.67;2.30;;;9.30;99.90;;;;;;5032873;28;20533;-73
2023/04/27 08:45:24;;;;;;;3.27;2.43;;;9.40;99.90;;;;;;5032953;28;20559;-72
2023/04/27 08:47:51;;;;;;;6.53;2.43;;;9.50;99.90;;;;;;5032095;28;20188;-73
2023/04/27 08:50:17;;;;;;;4.67;2.50;;;9.60;99.90;;;;;;5031835;28;20188;-73
2023/04/27 08:52:44;;;;;;;6.13;2.63;;;9.70;99.90;;;;;;5033815;28;20180;-72
2023/04/27 08:55:10;;;;;;;6.23;2.30;;;9.80;99.90;;;;;;5032377;28;20204;-74
2023/04/27 08:57:35;;;;;;;2.37;1.90;;;9.90;99.90;;;;;;5032901;28;20208;-72
2023/04/27 09:00:12;;;;;;;3.87;2.43;;;9.90;99.90;;;;;;5031614;28;20267;-73
2023/04/27 09:02:46;;;;;;;5.80;2.50;;;10.00;99.90;;;;;;5033330;28;20157;-73
2023/04/27 09:05:19;;;;;;;3.87;1.97;;;10.00;99.90;;;;;;5031781;28;20732;-73
2023/04/27 09:07:58;;;;;;;5.73;2.30;;;10.10;99.90;;;;;;5031594;28;20271;-72
2023/04/27 09:10:23;;;;;;;4.53;2.10;;;10.10;99.90;;;;;;5033038;28;20631;-72
2023/04/27 09:12:59;;;;;;;5.40;3.00;;;10.20;99.90;;;;;;5031695;28;20222;-73
2023/04/27 09:15:26;;;;;;;5.77;2.53;;;10.20;99.90;;;;;;5032843;28;20302;-73
2023/04/27 09:17:56;;;;;;;3.57;2.60;;;10.20;99.90;;;;;;5031373;28;20201;-72
2023/04/27 09:20:21;;;;;;;3.53;2.53;;;10.30;99.90;;;;;;5031522;28;20646;-73
2023/04/27 09:22:50;;;;;;;6.23;2.80;;;10.30;99.90;;;;;;5032654;28;20251;-72
2023/04/27 09:25:26;;;;;;;6.77;2.63;;;10.40;99.90;;;;;;5032437;28;20193;-73
2023/04/27 09:27:51;;;;;;;4.37;2.57;;;10.50;99.90;;;;;;5031103;28;20251;-73
2023/04/27 09:30:17;;;;;;;3.43;2.33;;;10.60;99.90;;;;;;5032992;28;20262;-73
2023/04/27 09:32:58;;;;;;;3.93;2.50;;;10.60;99.90;;;;;;5031390;28;20180;-73
2023/04/27 09:35:28;;;;;;;4.03;2.63;;;10.70;99.90;;;;;;5031694;28;20210;-73
2023/04/27 09:37:54;;;;;;;4.33;2.53;;;10.80;99.90;;;;;;5032613;28;20207;-73
2023/04/27 09:40:26;;;;;;;5.63;2.50;;;10.80;99.90;;;;;;5032744;28;20161;-73
2023/04/27 09:42:57;;;;;;;2.87;2.40;;;11.00;99.90;;;;;;5031217;28;20165;-73
2023/04/27 09:45:23;;;;;;;7.37;2.50;;;11.00;99.90;;;;;;5032619;28;20194;-73
2023/04/27 09:47:49;;;;;;;5.87;2.40;;;11.10;99.90;;;;;;5031281;28;20184;-73
2023/04/27 09:50:15;;;;;;;3.43;2.20;;;11.20;99.90;;;;;;5031678;28;20181;-73
2023/04/27 09:52:41;;;;;;;6.23;2.70;;;11.20;99.90;;;;;;5032593;28;20176;-73
2023/04/27 09:55:19;;;;;;;6.70;2.30;;;11.20;99.90;;;;;;5032074;28;20176;-73
2023/04/27 09:58:05;;;;;;;5.53;2.70;;;11.30;99.90;;;;;;5032458;28;20207;-73
2023/04/27 10:00:52;;;;;;;5.83;2.47;;;11.30;99.90;;;;;;5031235;28;20708;-73
2023/04/27 10:03:29;;;;;;;4.13;1.90;;;11.40;99.90;;;;;;5032474;28;20157;-72
2023/04/27 10:06:25;;;;;;;4.00;2.43;;;11.40;99.90;;;;;;5032630;28;20180;-73
2023/04/27 10:08:51;;;;;;;2.87;1.90;;;11.50;99.90;;;;;;5032049;28;20293;-73
2023/04/27 10:11:21;;;;;;;5.27;2.10;;;11.60;99.90;;;;;;5032131;28;20208;-73
2023/04/27 10:13:54;;;;;;;3.63;2.30;;;11.70;99.90;;;;;;5031721;28;20288;-73
2023/04/27 10:16:21;;;;;;;3.30;2.37;;;11.80;99.90;;;;;;5031961;28;20271;-72
2023/04/27 10:18:54;;;;;;;7.20;2.53;;;11.70;99.90;;;;;;5031594;28;20283;-73
2023/04/27 10:21:20;;;;;;;4.03;2.27;;;11.80;99.90;;;;;;5032194;28;20642;-72
2023/04/27 10:23:48;;;;;;;6.03;2.80;;;11.80;99.90;;;;;;5030990;28;20207;-74
2023/04/27 10:26:24;;;;;;;4.50;2.53;;;11.80;99.00;;;;;;5032433;28;20195;-73
2023/04/27 10:29:18;;;;;;;5.13;2.70;;;11.90;99.90;;;;;;5030788;28;20160;-73
2023/04/27 10:31:47;;;;;;;4.57;2.40;;;12.00;99.90;;;;;;5034103;28;20184;-73
2023/04/27 10:34:17;;;;;;;6.30;3.00;;;12.00;99.90;;;;;;5031956;28;20196;-73
2023/04/27 10:36:43;;;;;;;5.37;2.53;;;12.10;99.90;;;;;;5031866;28;20203;-72
2023/04/27 10:39:17;;;;;;;3.33;2.10;;;12.10;1.00;;;;;;5031877;28;20609;-73
2023/04/27 10:41:51;;;;;;;7.23;2.30;;;12.10;1.00;;;;;;5030374;28;20172;-73
2023/04/27 10:44:19;;;;;;;4.40;2.07;;;12.20;99.90;;;;;;5030300;28;20204;-73
2023/04/27 10:46:58;;;;;;;4.60;2.20;;;12.20;99.90;;;;;;5031700;28;20759;-71
2023/04/27 10:49:29;;;;;;;3.47;2.30;;;12.20;99.90;;;;;;5030121;28;20636;-73
2023/04/27 10:51:58;;;;;;;2.97;1.93;;;12.30;99.90;;;;;;5030501;28;20180;-74
2023/04/27 10:54:28;;;;;;;3.33;2.17;;;12.30;99.90;;;;;;5031560;28;20566;-72
2023/04/27 10:57:00;;;;;;;2.70;2.20;;;12.30;99.90;;;;;;5031171;28;20191;-73
2023/04/27 10:59:26;;;;;;;6.23;2.60;;;12.30;99.90;;;;;;5030039;28;20164;-73
2023/04/27 11:01:51;;;;;;;6.00;2.40;;;12.30;99.90;;;;;;5031455;28;20168;-74
2023/04/27 11:04:18;;;;;;;4.10;2.70;;;12.30;99.90;;;;;;5031438;28;20179;-73
2023/04/27 11:06:47;;;;;;;4.10;2.60;;;12.40;99.90;;;;;;5031430;28;20188;-73
2023/04/27 11:09:23;;;;;;;5.70;2.40;;;12.30;99.90;;;;;;5029906;28;20177;-73
2023/04/27 11:11:49;;;;;;;4.17;2.30;;;12.20;99.90;;;;;;5031052;28;20199;-73
2023/04/27 11:14:20;;;;;;;8.17;2.80;;;12.30;99.90;;;;;;5029495;28;20165;-72
2023/04/27 11:16:46;;;;;;;5.47;3.17;;;12.30;99.90;;;;;;5029630;28;20192;-73
2023/04/27 11:19:12;;;;;;;3.47;2.53;;;12.30;99.90;;;;;;5029590;28;20590;-73
2023/04/27 11:21:38;;;;;;;6.70;2.27;;;12.40;99.90;;;;;;5030816;28;20168;-73
2023/04/27 11:24:05;;;;;;;5.67;2.80;;;12.40;99.90;;;;;;5030813;28;20606;-73
2023/04/27 11:26:31;;;;;;;6.63;2.50;;;12.40;99.90;;;;;;5034510;28;20286;-73
2023/04/27 11:28:59;;;;;;;4.03;2.57;;;12.50;99.90;;;;;;5033299;28;20218;-73
2023/04/27 11:31:42;;;;;;;5.13;2.63;;;12.50;99.90;;;;;;5033061;28;20181;-73
2023/04/27 11:34:13;;;;;;;4.30;2.30;;;12.50;99.90;;;;;;5033021;28;20306;-73
2023/04/27 11:36:39;;;;;;;6.80;2.87;;;12.60;99.90;;;;;;5032991;28;20196;-73
2023/04/27 11:39:05;;;;;;;5.57;3.17;;;12.60;99.90;;;;;;5033776;28;20173;-73
2023/04/27 11:41:35;;;;;;;5.83;2.13;;;12.70;99.90;;;;;;5033423;28;20177;-74
2023/04/27 11:44:08;;;;;;;3.10;2.10;;;12.70;99.90;;;;;;5034189;28;20184;-73
2023/04/27 11:46:35;;;;;;;4.97;2.60;;;12.70;99.90;;;;;;5034221;28;20609;-72
2023/04/27 11:49:05;;;;;;;5.07;2.03;;;12.70;99.90;;;;;;5034470;28;20247;-73
2023/04/27 11:51:32;;;;;;;7.23;2.57;;;12.80;99.90;;;;;;5034176;28;20183;-73
2023/04/27 11:54:08;;;;;;;4.97;2.83;;;12.80;99.90;;;;;;5033822;28;20307;-73
2023/04/27 11:56:36;;;;;;;6.17;2.17;;;12.80;99.90;;;;;;5034195;28;20215;-73
2023/04/27 11:59:02;;;;;;;3.07;2.37;;;13.00;99.90;;;;;;5032643;28;20550;-73
2023/04/27 12:01:29;;;;;;;2.17;2.00;;;13.00;99.90;;;;;;5033804;28;20209;-73
2023/04/27 12:03:55;;;;;;;2.83;2.20;;;13.10;99.90;;;;;;5033490;28;20743;-73
2023/04/27 12:06:25;;;;;;;4.17;2.63;;;13.10;99.90;;;;;;5033766;28;20212;-73
2023/04/27 12:08:51;;;;;;;3.73;2.30;;;13.30;99.90;;;;;;5033654;28;20199;-73
2023/04/27 12:11:17;;;;;;;4.57;2.17;;;13.30;99.90;;;;;;5033897;28;20226;-73
2023/04/27 12:13:42;;;;;;;7.90;2.37;;;13.50;99.90;;;;;;5033626;28;20188;-74
2023/04/27 12:16:08;;;;;;;3.50;2.30;;;13.50;99.90;;;;;;5032793;28;20206;-73
2023/04/27 12:18:33;;;;;;;8.27;3.00;;;13.60;99.90;;;;;;5033710;28;20207;-73
2023/04/27 12:20:59;;;;;;;4.07;2.60;;;13.60;99.90;;;;;;5033755;28;20173;-73
2023/04/27 12:23:24;;;;;;;3.53;2.77;;;13.70;99.90;;;;;;5033588;28;20168;-73
2023/04/27 12:25:50;;;;;;;3.77;2.63;;;13.80;99.90;;;;;;5033955;28;20210;-73
2023/04/27 12:28:18;;;;;;;2.70;2.27;;;13.90;99.90;;;;;;5032035;28;20246;-73
2023/04/27 12:30:43;;;;;;;7.07;2.57;;;13.90;99.90;;;;;;5033163;28;20269;-73
2023/04/27 12:33:10;;;;;;;4.43;2.50;;;14.00;99.90;;;;;;5032152;28;20176;-73
2023/04/27 12:35:36;;;;;;;5.80;2.60;;;14.00;99.90;;;;;;5031242;28;20216;-73
2023/04/27 12:38:02;;;;;;;4.20;1.93;;;14.00;99.90;;;;;;5032269;28;20212;-75
2023/04/27 12:40:28;;;;;;;4.23;2.83;;;14.10;99.90;;;;;;5032572;28;20179;-74
2023/04/27 12:42:54;;;;;;;11.53;2.97;;;14.20;99.90;;;;;;5034215;28;20169;-74
2023/04/27 12:45:19;;;;;;;5.23;2.50;;;15.10;99.90;;;;;;5032222;28;20199;-74
2023/04/27 12:47:46;;;;;;;6.87;2.90;;;14.40;99.90;;;;;;5032330;28;20172;-73
2023/04/27 12:50:12;;;;;;;8.27;3.43;;;14.50;99.90;;;;;;5031999;28;20176;-74
2023/04/27 12:52:38;;;;;;;6.13;3.20;;;14.60;99.90;;;;;;5032194;28;20180;-75